sensor_id;sensor_type;location;lat;lon;timestamp;P1;P2;P0
42410;PMS5003;28056;51.112;0.984;2023-08-06T00:00:41;13;13;
42410;PMS5003;28056;51.112;0.984;2023-08-06T00:04:46;8;8;
42410;PMS5003;28056;51.112;0.984;2023-08-06T00:07:14;11;11;
42410;PMS5003;28056;51.112;0.984;2023-08-06T00:09:41;9;9;
42410;PMS5003;28056;51.112;0.984;2023-08-06T00:12:08;11;9;
42410;PMS5003;28056;51.112;0.984;2023-08-06T00:14:35;12;12;
42410;PMS5003;28056;51.112;0.984;2023-08-06T00:17:02;10;10;
42410;PMS5003;28056;51.112;0.984;2023-08-06T00:19:30;11;9;
42410;PMS5003;28056;51.112;0.984;2023-08-06T00:21:57;7;7;
42410;PMS5003;28056;51.112;0.984;2023-08-06T00:24:25;9;7;
42410;PMS5003;28056;51.112;0.984;2023-08-06T00:26:53;8;8;
42410;PMS5003;28056;51.112;0.984;2023-08-06T00:29:20;7;7;
42410;PMS5003;28056;51.112;0.984;2023-08-06T00:31:47;8;8;
42410;PMS5003;28056;51.112;0.984;2023-08-06T00:34:14;8;6;
42410;PMS5003;28056;51.112;0.984;2023-08-06T00:36:42;6;3;
42410;PMS5003;28056;51.112;0.984;2023-08-06T00:39:10;7;6;
42410;PMS5003;28056;51.112;0.984;2023-08-06T00:41:38;8;8;
42410;PMS5003;28056;51.112;0.984;2023-08-06T00:44:05;7;7;
42410;PMS5003;28056;51.112;0.984;2023-08-06T00:46:33;4;4;
42410;PMS5003;28056;51.112;0.984;2023-08-06T00:49:01;6;6;
42410;PMS5003;28056;51.112;0.984;2023-08-06T00:51:29;7;7;
42410;PMS5003;28056;51.112;0.984;2023-08-06T00:53:56;4;4;
42410;PMS5003;28056;51.112;0.984;2023-08-06T00:56:24;6;6;
42410;PMS5003;28056;51.112;0.984;2023-08-06T00:58:52;4;4;
42410;PMS5003;28056;51.112;0.984;2023-08-06T01:01:19;6;4;
42410;PMS5003;28056;51.112;0.984;2023-08-06T01:03:46;3;3;
42410;PMS5003;28056;51.112;0.984;2023-08-06T01:06:14;7;7;
42410;PMS5003;28056;51.112;0.984;2023-08-06T01:08:48;4;4;
42410;PMS5003;28056;51.112;0.984;2023-08-06T01:11:24;4;4;
42410;PMS5003;28056;51.112;0.984;2023-08-06T01:13:59;7;4;
42410;PMS5003;28056;51.112;0.984;2023-08-06T01:16:39;4;4;
42410;PMS5003;28056;51.112;0.984;2023-08-06T01:19:15;6;3;
42410;PMS5003;28056;51.112;0.984;2023-08-06T01:21:43;3;3;
42410;PMS5003;28056;51.112;0.984;2023-08-06T01:24:10;3;2;
42410;PMS5003;28056;51.112;0.984;2023-08-06T01:26:42;3;3;
42410;PMS5003;28056;51.112;0.984;2023-08-06T01:29:25;4;3;
42410;PMS5003;28056;51.112;0.984;2023-08-06T01:31:57;4;4;
42410;PMS5003;28056;51.112;0.984;2023-08-06T01:34:25;4;3;
42410;PMS5003;28056;51.112;0.984;2023-08-06T01:36:57;6;3;
42410;PMS5003;28056;51.112;0.984;2023-08-06T01:39:26;6;6;
42410;PMS5003;28056;51.112;0.984;2023-08-06T01:41:54;3;3;
42410;PMS5003;28056;51.112;0.984;2023-08-06T01:44:22;6;4;
42410;PMS5003;28056;51.112;0.984;2023-08-06T01:46:49;4;3;
42410;PMS5003;28056;51.112;0.984;2023-08-06T01:49:16;6;6;
42410;PMS5003;28056;51.112;0.984;2023-08-06T01:51:44;7;7;
42410;PMS5003;28056;51.112;0.984;2023-08-06T01:54:11;7;4;
42410;PMS5003;28056;51.112;0.984;2023-08-06T01:56:39;6;6;
42410;PMS5003;28056;51.112;0.984;2023-08-06T01:59:06;3;3;
42410;PMS5003;28056;51.112;0.984;2023-08-06T02:01:33;4;4;
42410;PMS5003;28056;51.112;0.984;2023-08-06T02:04:01;3;3;
42410;PMS5003;28056;51.112;0.984;2023-08-06T02:06:28;6;3;
42410;PMS5003;28056;51.112;0.984;2023-08-06T02:08:56;2;2;
42410;PMS5003;28056;51.112;0.984;2023-08-06T02:11:24;7;4;
42410;PMS5003;28056;51.112;0.984;2023-08-06T02:13:51;3;3;
42410;PMS5003;28056;51.112;0.984;2023-08-06T02:16:18;2;2;
42410;PMS5003;28056;51.112;0.984;2023-08-06T02:18:46;3;3;
42410;PMS5003;28056;51.112;0.984;2023-08-06T02:21:13;3;3;
42410;PMS5003;28056;51.112;0.984;2023-08-06T02:23:41;3;3;
42410;PMS5003;28056;51.112;0.984;2023-08-06T02:26:09;4;2;
42410;PMS5003;28056;51.112;0.984;2023-08-06T02:28:37;2;2;
42410;PMS5003;28056;51.112;0.984;2023-08-06T02:31:04;2;2;
42410;PMS5003;28056;51.112;0.984;2023-08-06T02:33:32;3;3;
42410;PMS5003;28056;51.112;0.984;2023-08-06T02:36:00;3;3;
42410;PMS5003;28056;51.112;0.984;2023-08-06T02:38:27;4;2;
42410;PMS5003;28056;51.112;0.984;2023-08-06T02:40:55;3;3;
42410;PMS5003;28056;51.112;0.984;2023-08-06T02:43:23;3;2;
42410;PMS5003;28056;51.112;0.984;2023-08-06T02:45:50;3;3;
42410;PMS5003;28056;51.112;0.984;2023-08-06T02:48:17;3;3;
42410;PMS5003;28056;51.112;0.984;2023-08-06T02:50:45;3;3;
42410;PMS5003;28056;51.112;0.984;2023-08-06T02:53:13;6;3;
42410;PMS5003;28056;51.112;0.984;2023-08-06T02:55:45;2;2;
42410;PMS5003;28056;51.112;0.984;2023-08-06T02:58:13;4;2;
42410;PMS5003;28056;51.112;0.984;2023-08-06T03:00:40;3;3;
42410;PMS5003;28056;51.112;0.984;2023-08-06T03:03:08;3;2;
42410;PMS5003;28056;51.112;0.984;2023-08-06T03:05:36;1;1;
42410;PMS5003;28056;51.112;0.984;2023-08-06T03:08:04;3;3;
42410;PMS5003;28056;51.112;0.984;2023-08-06T03:10:31;3;3;
42410;PMS5003;28056;51.112;0.984;2023-08-06T03:12:58;3;3;
42410;PMS5003;28056;51.112;0.984;2023-08-06T03:15:26;3;2;
42410;PMS5003;28056;51.112;0.984;2023-08-06T03:17:55;4;4;
42410;PMS5003;28056;51.112;0.984;2023-08-06T03:20:22;3;2;
42410;PMS5003;28056;51.112;0.984;2023-08-06T03:22:50;6;2;
42410;PMS5003;28056;51.112;0.984;2023-08-06T03:25:17;11;6;
42410;PMS5003;28056;51.112;0.984;2023-08-06T03:27:45;5;5;
42410;PMS5003;28056;51.112;0.984;2023-08-06T03:30:12;5;5;
42410;PMS5003;28056;51.112;0.984;2023-08-06T03:32:40;6;3;
42410;PMS5003;28056;51.112;0.984;2023-08-06T03:35:08;3;3;
42410;PMS5003;28056;51.112;0.984;2023-08-06T03:37:35;6;4;
42410;PMS5003;28056;51.112;0.984;2023-08-06T03:40:02;3;3;
42410;PMS5003;28056;51.112;0.984;2023-08-06T03:42:30;6;6;
42410;PMS5003;28056;51.112;0.984;2023-08-06T03:44:57;3;3;
42410;PMS5003;28056;51.112;0.984;2023-08-06T03:47:24;8;6;
42410;PMS5003;28056;51.112;0.984;2023-08-06T03:49:51;5;3;
42410;PMS5003;28056;51.112;0.984;2023-08-06T03:52:19;4;4;
42410;PMS5003;28056;51.112;0.984;2023-08-06T03:54:47;6;6;
42410;PMS5003;28056;51.112;0.984;2023-08-06T03:57:15;2;2;
42410;PMS5003;28056;51.112;0.984;2023-08-06T03:59:42;4;3;
42410;PMS5003;28056;51.112;0.984;2023-08-06T04:02:10;3;3;
42410;PMS5003;28056;51.112;0.984;2023-08-06T04:04:38;6;6;
42410;PMS5003;28056;51.112;0.984;2023-08-06T04:07:06;6;3;
42410;PMS5003;28056;51.112;0.984;2023-08-06T04:09:33;8;6;
42410;PMS5003;28056;51.112;0.984;2023-08-06T04:12:16;3;3;
42410;PMS5003;28056;51.112;0.984;2023-08-06T04:14:44;3;3;
42410;PMS5003;28056;51.112;0.984;2023-08-06T04:17:11;6;2;
42410;PMS5003;28056;51.112;0.984;2023-08-06T04:19:39;6;5;
42410;PMS5003;28056;51.112;0.984;2023-08-06T04:22:06;6;3;
42410;PMS5003;28056;51.112;0.984;2023-08-06T04:24:34;2;2;
42410;PMS5003;28056;51.112;0.984;2023-08-06T04:27:02;3;3;
42410;PMS5003;28056;51.112;0.984;2023-08-06T04:29:29;6;3;
42410;PMS5003;28056;51.112;0.984;2023-08-06T04:31:57;2;2;
42410;PMS5003;28056;51.112;0.984;2023-08-06T04:34:25;5;5;
42410;PMS5003;28056;51.112;0.984;2023-08-06T04:36:52;5;2;
42410;PMS5003;28056;51.112;0.984;2023-08-06T04:39:19;3;3;
42410;PMS5003;28056;51.112;0.984;2023-08-06T04:41:46;2;2;
42410;PMS5003;28056;51.112;0.984;2023-08-06T04:44:13;3;2;
42410;PMS5003;28056;51.112;0.984;2023-08-06T04:46:40;3;3;
42410;PMS5003;28056;51.112;0.984;2023-08-06T04:49:08;2;2;
42410;PMS5003;28056;51.112;0.984;2023-08-06T04:51:36;2;2;
42410;PMS5003;28056;51.112;0.984;2023-08-06T04:54:04;7;3;
42410;PMS5003;28056;51.112;0.984;2023-08-06T04:56:31;3;3;
42410;PMS5003;28056;51.112;0.984;2023-08-06T04:58:58;3;2;
42410;PMS5003;28056;51.112;0.984;2023-08-06T05:01:26;6;5;
42410;PMS5003;28056;51.112;0.984;2023-08-06T05:03:54;3;3;
42410;PMS5003;28056;51.112;0.984;2023-08-06T05:06:21;2;2;
42410;PMS5003;28056;51.112;0.984;2023-08-06T05:08:48;3;3;
42410;PMS5003;28056;51.112;0.984;2023-08-06T05:11:16;5;3;
42410;PMS5003;28056;51.112;0.984;2023-08-06T05:13:43;3;3;
42410;PMS5003;28056;51.112;0.984;2023-08-06T05:16:09;2;2;
42410;PMS5003;28056;51.112;0.984;2023-08-06T05:18:36;2;2;
42410;PMS5003;28056;51.112;0.984;2023-08-06T05:21:03;5;5;
42410;PMS5003;28056;51.112;0.984;2023-08-06T05:23:30;7;5;
42410;PMS5003;28056;51.112;0.984;2023-08-06T05:25:57;6;3;
42410;PMS5003;28056;51.112;0.984;2023-08-06T05:28:25;6;5;
42410;PMS5003;28056;51.112;0.984;2023-08-06T05:30:52;3;3;
42410;PMS5003;28056;51.112;0.984;2023-08-06T05:33:20;3;2;
42410;PMS5003;28056;51.112;0.984;2023-08-06T05:35:47;5;3;
42410;PMS5003;28056;51.112;0.984;2023-08-06T05:38:16;5;3;
42410;PMS5003;28056;51.112;0.984;2023-08-06T05:40:43;5;5;
42410;PMS5003;28056;51.112;0.984;2023-08-06T05:43:10;5;2;
42410;PMS5003;28056;51.112;0.984;2023-08-06T05:45:37;6;3;
42410;PMS5003;28056;51.112;0.984;2023-08-06T05:48:05;3;3;
42410;PMS5003;28056;51.112;0.984;2023-08-06T05:50:33;2;2;
42410;PMS5003;28056;51.112;0.984;2023-08-06T05:53:00;1;1;
42410;PMS5003;28056;51.112;0.984;2023-08-06T05:55:27;3;2;
42410;PMS5003;28056;51.112;0.984;2023-08-06T05:57:54;4;3;
42410;PMS5003;28056;51.112;0.984;2023-08-06T06:00:21;3;3;
42410;PMS5003;28056;51.112;0.984;2023-08-06T06:02:49;4;3;
42410;PMS5003;28056;51.112;0.984;2023-08-06T06:05:17;2;2;
42410;PMS5003;28056;51.112;0.984;2023-08-06T06:07:45;2;2;
42410;PMS5003;28056;51.112;0.984;2023-08-06T06:10:12;2;2;
42410;PMS5003;28056;51.112;0.984;2023-08-06T06:12:40;3;3;
42410;PMS5003;28056;51.112;0.984;2023-08-06T06:15:07;2;2;
42410;PMS5003;28056;51.112;0.984;2023-08-06T06:17:36;2;2;
42410;PMS5003;28056;51.112;0.984;2023-08-06T06:20:04;1;1;
42410;PMS5003;28056;51.112;0.984;2023-08-06T06:22:32;2;2;
42410;PMS5003;28056;51.112;0.984;2023-08-06T06:24:59;2;2;
42410;PMS5003;28056;51.112;0.984;2023-08-06T06:27:27;2;2;
42410;PMS5003;28056;51.112;0.984;2023-08-06T06:29:54;2;2;
42410;PMS5003;28056;51.112;0.984;2023-08-06T06:32:21;4;3;
42410;PMS5003;28056;51.112;0.984;2023-08-06T06:34:49;3;3;
42410;PMS5003;28056;51.112;0.984;2023-08-06T06:37:17;1;1;
42410;PMS5003;28056;51.112;0.984;2023-08-06T06:39:44;4;2;
42410;PMS5003;28056;51.112;0.984;2023-08-06T06:42:13;1;1;
42410;PMS5003;28056;51.112;0.984;2023-08-06T06:44:41;3;3;
42410;PMS5003;28056;51.112;0.984;2023-08-06T06:47:08;3;3;
42410;PMS5003;28056;51.112;0.984;2023-08-06T06:49:35;3;3;
42410;PMS5003;28056;51.112;0.984;2023-08-06T06:52:04;2;2;
42410;PMS5003;28056;51.112;0.984;2023-08-06T06:54:32;4;2;
42410;PMS5003;28056;51.112;0.984;2023-08-06T06:56:59;2;2;
42410;PMS5003;28056;51.112;0.984;2023-08-06T06:59:27;2;2;
42410;PMS5003;28056;51.112;0.984;2023-08-06T07:01:54;1;1;
42410;PMS5003;28056;51.112;0.984;2023-08-06T07:04:21;3;3;
42410;PMS5003;28056;51.112;0.984;2023-08-06T07:06:49;1;1;
42410;PMS5003;28056;51.112;0.984;2023-08-06T07:09:17;2;2;
42410;PMS5003;28056;51.112;0.984;2023-08-06T07:11:44;1;1;
42410;PMS5003;28056;51.112;0.984;2023-08-06T07:14:11;2;2;
42410;PMS5003;28056;51.112;0.984;2023-08-06T07:16:39;2;2;
42410;PMS5003;28056;51.112;0.984;2023-08-06T07:19:07;1;1;
42410;PMS5003;28056;51.112;0.984;2023-08-06T07:21:35;2;1;
42410;PMS5003;28056;51.112;0.984;2023-08-06T07:24:02;1;1;
42410;PMS5003;28056;51.112;0.984;2023-08-06T07:26:30;3;3;
42410;PMS5003;28056;51.112;0.984;2023-08-06T07:28:57;2;2;
42410;PMS5003;28056;51.112;0.984;2023-08-06T07:31:25;3;2;
42410;PMS5003;28056;51.112;0.984;2023-08-06T07:33:52;2;2;
42410;PMS5003;28056;51.112;0.984;2023-08-06T07:36:20;2;2;
42410;PMS5003;28056;51.112;0.984;2023-08-06T07:38:48;2;2;
42410;PMS5003;28056;51.112;0.984;2023-08-06T07:41:15;4;2;
42410;PMS5003;28056;51.112;0.984;2023-08-06T07:43:42;2;2;
42410;PMS5003;28056;51.112;0.984;2023-08-06T07:46:10;2;2;
42410;PMS5003;28056;51.112;0.984;2023-08-06T07:48:38;4;2;
42410;PMS5003;28056;51.112;0.984;2023-08-06T07:51:05;3;3;
42410;PMS5003;28056;51.112;0.984;2023-08-06T07:53:33;3;3;
42410;PMS5003;28056;51.112;0.984;2023-08-06T07:56:01;2;2;
42410;PMS5003;28056;51.112;0.984;2023-08-06T07:58:29;3;3;
42410;PMS5003;28056;51.112;0.984;2023-08-06T08:00:56;1;1;
42410;PMS5003;28056;51.112;0.984;2023-08-06T08:03:24;3;3;
42410;PMS5003;28056;51.112;0.984;2023-08-06T08:05:54;2;2;
42410;PMS5003;28056;51.112;0.984;2023-08-06T08:08:22;2;2;
42410;PMS5003;28056;51.112;0.984;2023-08-06T08:10:50;3;2;
42410;PMS5003;28056;51.112;0.984;2023-08-06T08:13:16;1;1;
42410;PMS5003;28056;51.112;0.984;2023-08-06T08:15:43;5;3;
42410;PMS5003;28056;51.112;0.984;2023-08-06T08:18:10;2;2;
42410;PMS5003;28056;51.112;0.984;2023-08-06T08:20:38;2;2;
42410;PMS5003;28056;51.112;0.984;2023-08-06T08:23:06;3;3;
42410;PMS5003;28056;51.112;0.984;2023-08-06T08:25:33;1;1;
42410;PMS5003;28056;51.112;0.984;2023-08-06T08:28:00;2;2;
42410;PMS5003;28056;51.112;0.984;2023-08-06T08:30:28;1;1;
42410;PMS5003;28056;51.112;0.984;2023-08-06T08:32:55;3;3;
42410;PMS5003;28056;51.112;0.984;2023-08-06T08:35:22;2;2;
42410;PMS5003;28056;51.112;0.984;2023-08-06T08:37:50;2;2;
42410;PMS5003;28056;51.112;0.984;2023-08-06T08:40:18;2;2;
42410;PMS5003;28056;51.112;0.984;2023-08-06T08:42:47;3;2;
42410;PMS5003;28056;51.112;0.984;2023-08-06T08:45:15;2;2;
42410;PMS5003;28056;51.112;0.984;2023-08-06T08:47:42;5;1;
42410;PMS5003;28056;51.112;0.984;2023-08-06T08:50:11;1;1;
42410;PMS5003;28056;51.112;0.984;2023-08-06T08:52:39;3;2;
42410;PMS5003;28056;51.112;0.984;2023-08-06T08:55:07;1;1;
42410;PMS5003;28056;51.112;0.984;2023-08-06T08:57:35;2;2;
42410;PMS5003;28056;51.112;0.984;2023-08-06T09:00:02;1;1;
42410;PMS5003;28056;51.112;0.984;2023-08-06T09:02:30;2;2;
42410;PMS5003;28056;51.112;0.984;2023-08-06T09:05:00;3;1;
42410;PMS5003;28056;51.112;0.984;2023-08-06T09:07:32;3;2;
42410;PMS5003;28056;51.112;0.984;2023-08-06T09:10:02;1;1;
42410;PMS5003;28056;51.112;0.984;2023-08-06T09:12:30;2;2;
42410;PMS5003;28056;51.112;0.984;2023-08-06T09:14:58;1;1;
42410;PMS5003;28056;51.112;0.984;2023-08-06T09:17:25;2;2;
42410;PMS5003;28056;51.112;0.984;2023-08-06T09:19:53;1;1;
42410;PMS5003;28056;51.112;0.984;2023-08-06T09:22:20;1;1;
42410;PMS5003;28056;51.112;0.984;2023-08-06T09:24:48;1;1;
42410;PMS5003;28056;51.112;0.984;2023-08-06T09:27:16;1;1;
42410;PMS5003;28056;51.112;0.984;2023-08-06T09:29:44;4;1;
42410;PMS5003;28056;51.112;0.984;2023-08-06T09:32:12;3;1;
42410;PMS5003;28056;51.112;0.984;2023-08-06T09:34:41;2;2;
42410;PMS5003;28056;51.112;0.984;2023-08-06T09:37:09;3;1;
42410;PMS5003;28056;51.112;0.984;2023-08-06T09:39:38;1;1;
42410;PMS5003;28056;51.112;0.984;2023-08-06T09:42:07;1;1;
42410;PMS5003;28056;51.112;0.984;2023-08-06T09:44:34;1;1;
42410;PMS5003;28056;51.112;0.984;2023-08-06T09:47:02;2;2;
42410;PMS5003;28056;51.112;0.984;2023-08-06T09:49:40;1;1;
42410;PMS5003;28056;51.112;0.984;2023-08-06T09:52:09;3;2;
42410;PMS5003;28056;51.112;0.984;2023-08-06T09:54:38;0;0;
42410;PMS5003;28056;51.112;0.984;2023-08-06T09:57:06;3;1;
42410;PMS5003;28056;51.112;0.984;2023-08-06T09:59:35;1;1;
42410;PMS5003;28056;51.112;0.984;2023-08-06T10:02:04;1;1;
42410;PMS5003;28056;51.112;0.984;2023-08-06T10:04:38;1;1;
42410;PMS5003;28056;51.112;0.984;2023-08-06T10:07:06;1;1;
42410;PMS5003;28056;51.112;0.984;2023-08-06T10:09:34;2;1;
42410;PMS5003;28056;51.112;0.984;2023-08-06T10:12:01;4;2;
42410;PMS5003;28056;51.112;0.984;2023-08-06T10:14:30;5;5;
42410;PMS5003;28056;51.112;0.984;2023-08-06T10:17:02;2;1;
42410;PMS5003;28056;51.112;0.984;2023-08-06T10:19:30;1;1;
42410;PMS5003;28056;51.112;0.984;2023-08-06T10:22:08;1;1;
42410;PMS5003;28056;51.112;0.984;2023-08-06T10:24:53;4;3;
42410;PMS5003;28056;51.112;0.984;2023-08-06T10:27:22;2;2;
42410;PMS5003;28056;51.112;0.984;2023-08-06T10:29:55;1;1;
42410;PMS5003;28056;51.112;0.984;2023-08-06T10:32:29;1;1;
42410;PMS5003;28056;51.112;0.984;2023-08-06T10:35:27;1;1;
42410;PMS5003;28056;51.112;0.984;2023-08-06T10:37:57;2;2;
42410;PMS5003;28056;51.112;0.984;2023-08-06T10:40:26;2;2;
42410;PMS5003;28056;51.112;0.984;2023-08-06T10:42:53;1;1;
42410;PMS5003;28056;51.112;0.984;2023-08-06T10:45:21;1;1;
42410;PMS5003;28056;51.112;0.984;2023-08-06T10:47:48;1;1;
42410;PMS5003;28056;51.112;0.984;2023-08-06T10:50:16;3;1;
42410;PMS5003;28056;51.112;0.984;2023-08-06T10:52:44;3;1;
42410;PMS5003;28056;51.112;0.984;2023-08-06T10:55:12;1;1;
42410;PMS5003;28056;51.112;0.984;2023-08-06T10:57:39;1;1;
42410;PMS5003;28056;51.112;0.984;2023-08-06T11:00:07;1;1;
42410;PMS5003;28056;51.112;0.984;2023-08-06T11:02:36;0;0;
42410;PMS5003;28056;51.112;0.984;2023-08-06T11:05:05;2;2;
42410;PMS5003;28056;51.112;0.984;2023-08-06T11:07:33;1;1;
42410;PMS5003;28056;51.112;0.984;2023-08-06T11:10:02;1;1;
42410;PMS5003;28056;51.112;0.984;2023-08-06T11:12:30;6;2;
42410;PMS5003;28056;51.112;0.984;2023-08-06T11:14:57;1;1;
42410;PMS5003;28056;51.112;0.984;2023-08-06T11:17:25;1;1;
42410;PMS5003;28056;51.112;0.984;2023-08-06T11:19:55;1;1;
42410;PMS5003;28056;51.112;0.984;2023-08-06T11:22:25;1;1;
42410;PMS5003;28056;51.112;0.984;2023-08-06T11:24:53;1;1;
42410;PMS5003;28056;51.112;0.984;2023-08-06T11:27:21;1;1;
42410;PMS5003;28056;51.112;0.984;2023-08-06T11:29:48;3;2;
42410;PMS5003;28056;51.112;0.984;2023-08-06T11:32:16;1;1;
42410;PMS5003;28056;51.112;0.984;2023-08-06T11:34:43;2;1;
42410;PMS5003;28056;51.112;0.984;2023-08-06T11:37:11;0;0;
42410;PMS5003;28056;51.112;0.984;2023-08-06T11:39:38;1;1;
42410;PMS5003;28056;51.112;0.984;2023-08-06T11:42:14;2;1;
42410;PMS5003;28056;51.112;0.984;2023-08-06T11:44:41;3;2;
42410;PMS5003;28056;51.112;0.984;2023-08-06T11:47:11;2;2;
42410;PMS5003;28056;51.112;0.984;2023-08-06T11:49:40;1;1;
42410;PMS5003;28056;51.112;0.984;2023-08-06T11:52:10;1;1;
42410;PMS5003;28056;51.112;0.984;2023-08-06T11:54:39;3;2;
42410;PMS5003;28056;51.112;0.984;2023-08-06T11:57:07;2;2;
42410;PMS5003;28056;51.112;0.984;2023-08-06T11:59:35;1;1;
42410;PMS5003;28056;51.112;0.984;2023-08-06T12:02:04;2;2;
42410;PMS5003;28056;51.112;0.984;2023-08-06T12:04:56;0;0;
42410;PMS5003;28056;51.112;0.984;2023-08-06T12:07:26;1;1;
42410;PMS5003;28056;51.112;0.984;2023-08-06T12:09:55;1;1;
42410;PMS5003;28056;51.112;0.984;2023-08-06T12:12:22;2;2;
42410;PMS5003;28056;51.112;0.984;2023-08-06T12:14:49;3;1;
42410;PMS5003;28056;51.112;0.984;2023-08-06T12:17:17;0;0;
42410;PMS5003;28056;51.112;0.984;2023-08-06T12:19:45;1;1;
42410;PMS5003;28056;51.112;0.984;2023-08-06T12:22:12;2;2;
42410;PMS5003;28056;51.112;0.984;2023-08-06T12:24:40;1;1;
42410;PMS5003;28056;51.112;0.984;2023-08-06T12:27:08;1;1;
42410;PMS5003;28056;51.112;0.984;2023-08-06T12:29:36;2;2;
42410;PMS5003;28056;51.112;0.984;2023-08-06T12:32:07;1;1;
42410;PMS5003;28056;51.112;0.984;2023-08-06T12:34:34;3;1;
42410;PMS5003;28056;51.112;0.984;2023-08-06T12:37:02;2;2;
42410;PMS5003;28056;51.112;0.984;2023-08-06T12:39:30;1;1;
42410;PMS5003;28056;51.112;0.984;2023-08-06T12:41:57;1;1;
42410;PMS5003;28056;51.112;0.984;2023-08-06T12:44:25;2;2;
42410;PMS5003;28056;51.112;0.984;2023-08-06T12:46:52;1;1;
42410;PMS5003;28056;51.112;0.984;2023-08-06T12:49:20;1;1;
42410;PMS5003;28056;51.112;0.984;2023-08-06T12:51:48;2;2;
42410;PMS5003;28056;51.112;0.984;2023-08-06T12:54:16;3;1;
42410;PMS5003;28056;51.112;0.984;2023-08-06T12:56:44;2;2;
42410;PMS5003;28056;51.112;0.984;2023-08-06T12:59:13;2;2;
42410;PMS5003;28056;51.112;0.984;2023-08-06T13:01:41;1;1;
42410;PMS5003;28056;51.112;0.984;2023-08-06T13:04:10;2;2;
42410;PMS5003;28056;51.112;0.984;2023-08-06T13:06:37;2;2;
42410;PMS5003;28056;51.112;0.984;2023-08-06T13:09:05;1;1;
42410;PMS5003;28056;51.112;0.984;2023-08-06T13:11:32;3;3;
42410;PMS5003;28056;51.112;0.984;2023-08-06T13:14:04;2;2;
42410;PMS5003;28056;51.112;0.984;2023-08-06T13:16:33;2;2;
42410;PMS5003;28056;51.112;0.984;2023-08-06T13:19:00;1;1;
42410;PMS5003;28056;51.112;0.984;2023-08-06T13:21:31;1;1;
42410;PMS5003;28056;51.112;0.984;2023-08-06T13:24:00;2;2;
42410;PMS5003;28056;51.112;0.984;2023-08-06T13:26:28;1;1;
42410;PMS5003;28056;51.112;0.984;2023-08-06T13:28:56;1;1;
42410;PMS5003;28056;51.112;0.984;2023-08-06T13:31:24;2;2;
42410;PMS5003;28056;51.112;0.984;2023-08-06T13:33:53;3;2;
42410;PMS5003;28056;51.112;0.984;2023-08-06T13:36:21;2;2;
42410;PMS5003;28056;51.112;0.984;2023-08-06T13:38:49;4;2;
42410;PMS5003;28056;51.112;0.984;2023-08-06T13:41:16;3;3;
42410;PMS5003;28056;51.112;0.984;2023-08-06T13:43:44;4;2;
42410;PMS5003;28056;51.112;0.984;2023-08-06T13:46:12;3;3;
42410;PMS5003;28056;51.112;0.984;2023-08-06T13:48:40;2;2;
42410;PMS5003;28056;51.112;0.984;2023-08-06T13:51:07;1;1;
42410;PMS5003;28056;51.112;0.984;2023-08-06T13:53:35;3;3;
42410;PMS5003;28056;51.112;0.984;2023-08-06T13:56:03;2;2;
42410;PMS5003;28056;51.112;0.984;2023-08-06T13:58:31;3;3;
42410;PMS5003;28056;51.112;0.984;2023-08-06T14:00:59;5;3;
42410;PMS5003;28056;51.112;0.984;2023-08-06T14:03:26;3;3;
42410;PMS5003;28056;51.112;0.984;2023-08-06T14:05:53;3;3;
42410;PMS5003;28056;51.112;0.984;2023-08-06T14:08:21;2;2;
42410;PMS5003;28056;51.112;0.984;2023-08-06T14:10:50;4;4;
42410;PMS5003;28056;51.112;0.984;2023-08-06T14:13:18;2;2;
42410;PMS5003;28056;51.112;0.984;2023-08-06T14:15:46;3;3;
42410;PMS5003;28056;51.112;0.984;2023-08-06T14:18:14;4;4;
42410;PMS5003;28056;51.112;0.984;2023-08-06T14:20:41;2;2;
42410;PMS5003;28056;51.112;0.984;2023-08-06T14:23:09;4;4;
42410;PMS5003;28056;51.112;0.984;2023-08-06T14:25:37;3;3;
42410;PMS5003;28056;51.112;0.984;2023-08-06T14:28:05;3;3;
42410;PMS5003;28056;51.112;0.984;2023-08-06T14:30:32;5;5;
42410;PMS5003;28056;51.112;0.984;2023-08-06T14:33:00;3;3;
42410;PMS5003;28056;51.112;0.984;2023-08-06T14:35:28;3;3;
42410;PMS5003;28056;51.112;0.984;2023-08-06T14:37:55;3;3;
42410;PMS5003;28056;51.112;0.984;2023-08-06T14:40:22;5;4;
42410;PMS5003;28056;51.112;0.984;2023-08-06T14:42:50;4;4;
42410;PMS5003;28056;51.112;0.984;2023-08-06T14:45:18;4;4;
42410;PMS5003;28056;51.112;0.984;2023-08-06T14:47:45;4;4;
42410;PMS5003;28056;51.112;0.984;2023-08-06T14:50:13;2;2;
42410;PMS5003;28056;51.112;0.984;2023-08-06T14:52:40;3;3;
42410;PMS5003;28056;51.112;0.984;2023-08-06T14:55:09;3;3;
42410;PMS5003;28056;51.112;0.984;2023-08-06T14:57:36;3;3;
42410;PMS5003;28056;51.112;0.984;2023-08-06T15:00:04;3;3;
42410;PMS5003;28056;51.112;0.984;2023-08-06T15:02:32;3;3;
42410;PMS5003;28056;51.112;0.984;2023-08-06T15:05:00;5;4;
42410;PMS5003;28056;51.112;0.984;2023-08-06T15:07:28;4;4;
42410;PMS5003;28056;51.112;0.984;2023-08-06T15:09:57;5;4;
42410;PMS5003;28056;51.112;0.984;2023-08-06T15:12:24;3;3;
42410;PMS5003;28056;51.112;0.984;2023-08-06T15:14:52;2;2;
42410;PMS5003;28056;51.112;0.984;2023-08-06T15:17:19;3;3;
42410;PMS5003;28056;51.112;0.984;2023-08-06T15:19:47;2;2;
42410;PMS5003;28056;51.112;0.984;2023-08-06T15:22:14;4;3;
42410;PMS5003;28056;51.112;0.984;2023-08-06T15:24:42;4;4;
42410;PMS5003;28056;51.112;0.984;2023-08-06T15:27:10;3;3;
42410;PMS5003;28056;51.112;0.984;2023-08-06T15:29:37;4;4;
42410;PMS5003;28056;51.112;0.984;2023-08-06T15:32:05;4;4;
42410;PMS5003;28056;51.112;0.984;2023-08-06T15:34:32;3;3;
42410;PMS5003;28056;51.112;0.984;2023-08-06T15:37:00;4;4;
42410;PMS5003;28056;51.112;0.984;2023-08-06T15:39:28;3;3;
42410;PMS5003;28056;51.112;0.984;2023-08-06T15:41:55;2;2;
42410;PMS5003;28056;51.112;0.984;2023-08-06T15:44:22;2;2;
42410;PMS5003;28056;51.112;0.984;2023-08-06T15:46:51;2;2;
42410;PMS5003;28056;51.112;0.984;2023-08-06T15:49:18;3;3;
42410;PMS5003;28056;51.112;0.984;2023-08-06T15:51:46;4;3;
42410;PMS5003;28056;51.112;0.984;2023-08-06T15:54:14;2;2;
42410;PMS5003;28056;51.112;0.984;2023-08-06T15:56:41;3;3;
42410;PMS5003;28056;51.112;0.984;2023-08-06T15:59:25;5;5;
42410;PMS5003;28056;51.112;0.984;2023-08-06T16:01:54;5;4;
42410;PMS5003;28056;51.112;0.984;2023-08-06T16:04:22;5;4;
42410;PMS5003;28056;51.112;0.984;2023-08-06T16:06:50;4;4;
42410;PMS5003;28056;51.112;0.984;2023-08-06T16:09:17;6;5;
42410;PMS5003;28056;51.112;0.984;2023-08-06T16:11:45;5;3;
42410;PMS5003;28056;51.112;0.984;2023-08-06T16:14:12;3;3;
42410;PMS5003;28056;51.112;0.984;2023-08-06T16:16:40;3;3;
42410;PMS5003;28056;51.112;0.984;2023-08-06T16:19:08;5;5;
42410;PMS5003;28056;51.112;0.984;2023-08-06T16:21:35;4;4;
42410;PMS5003;28056;51.112;0.984;2023-08-06T16:24:03;6;5;
42410;PMS5003;28056;51.112;0.984;2023-08-06T16:26:31;4;4;
42410;PMS5003;28056;51.112;0.984;2023-08-06T16:28:59;4;4;
42410;PMS5003;28056;51.112;0.984;2023-08-06T16:31:28;4;4;
42410;PMS5003;28056;51.112;0.984;2023-08-06T16:33:56;4;4;
42410;PMS5003;28056;51.112;0.984;2023-08-06T16:36:24;2;2;
42410;PMS5003;28056;51.112;0.984;2023-08-06T16:38:52;5;4;
42410;PMS5003;28056;51.112;0.984;2023-08-06T16:41:20;6;4;
42410;PMS5003;28056;51.112;0.984;2023-08-06T16:43:47;4;4;
42410;PMS5003;28056;51.112;0.984;2023-08-06T16:46:15;2;2;
42410;PMS5003;28056;51.112;0.984;2023-08-06T16:48:42;4;4;
42410;PMS5003;28056;51.112;0.984;2023-08-06T16:51:10;5;4;
42410;PMS5003;28056;51.112;0.984;2023-08-06T16:53:37;4;4;
42410;PMS5003;28056;51.112;0.984;2023-08-06T16:56:05;5;3;
42410;PMS5003;28056;51.112;0.984;2023-08-06T16:58:33;5;5;